createdAt,value
2023-05-10T00:00:03.211Z,12.73
2023-05-10T00:01:03.197Z,12.70
2023-05-10T00:02:03.260Z,12.69
2023-05-10T00:03:03.282Z,12.68
2023-05-10T00:04:03.303Z,12.68
2023-05-10T00:05:03.249Z,12.68
2023-05-10T00:06:03.275Z,12.68
2023-05-10T00:07:03.293Z,12.67
2023-05-10T00:08:03.276Z,12.65
2023-05-10T00:09:03.330Z,12.64
2023-05-10T00:10:03.284Z,12.62
2023-05-10T00:11:03.304Z,12.59
2023-05-10T00:12:03.337Z,12.61
2023-05-10T00:13:03.372Z,12.59
2023-05-10T00:14:03.340Z,12.58
2023-05-10T00:15:03.472Z,12.57
2023-05-10T00:16:03.372Z,12.55
2023-05-10T00:17:03.383Z,12.54
2023-05-10T00:18:03.459Z,12.52
2023-05-10T00:20:00.417Z,12.53
2023-05-10T00:21:00.081Z,12.53
2023-05-10T00:22:00.095Z,12.54
2023-05-10T00:23:00.087Z,12.54
2023-05-10T00:24:00.114Z,12.56
2023-05-10T00:25:00.116Z,12.56
2023-05-10T00:26:00.143Z,12.56
2023-05-10T00:27:00.116Z,12.57
2023-05-10T00:28:00.129Z,12.59
2023-05-10T00:29:00.132Z,12.58
2023-05-10T00:30:00.179Z,12.58
2023-05-10T00:31:00.162Z,12.58
2023-05-10T00:32:00.190Z,12.55
2023-05-10T00:33:00.161Z,12.52
2023-05-10T00:34:00.153Z,12.50
2023-05-10T00:35:00.178Z,12.49
2023-05-10T00:36:00.203Z,12.50
2023-05-10T00:37:00.159Z,12.51
2023-05-10T00:38:00.134Z,12.52
2023-05-10T00:39:00.170Z,12.56
2023-05-10T00:40:00.174Z,12.57
2023-05-10T00:41:00.185Z,12.56
2023-05-10T00:42:00.125Z,12.52
2023-05-10T00:43:00.153Z,12.49
2023-05-10T00:44:00.220Z,12.45
2023-05-10T00:45:00.141Z,12.42
2023-05-10T00:46:00.209Z,12.40
2023-05-10T00:47:00.176Z,12.37
2023-05-10T00:48:00.183Z,12.36
2023-05-10T00:49:00.138Z,12.37
2023-05-10T00:50:00.210Z,12.37
2023-05-10T00:51:00.168Z,12.39
2023-05-10T00:52:00.159Z,12.40
2023-05-10T00:53:00.155Z,12.42
2023-05-10T00:54:00.170Z,12.43
2023-05-10T00:55:00.167Z,12.42
2023-05-10T00:56:00.433Z,12.45
2023-05-10T00:57:00.403Z,12.46
2023-05-10T00:58:00.413Z,12.46
2023-05-10T00:59:00.413Z,12.43
2023-05-10T01:00:00.449Z,12.42
2023-05-10T01:01:00.497Z,12.39
2023-05-10T01:02:00.431Z,12.38
2023-05-10T01:03:00.564Z,12.36
2023-05-10T01:04:00.468Z,12.35
2023-05-10T01:05:00.535Z,12.34
2023-05-10T01:06:00.470Z,12.35
2023-05-10T01:07:00.476Z,12.34
2023-05-10T01:08:00.516Z,12.34
2023-05-10T01:09:00.557Z,12.34
2023-05-10T01:10:00.489Z,12.38
2023-05-10T01:11:00.512Z,12.39
2023-05-10T01:12:00.567Z,12.38
2023-05-10T01:13:00.586Z,12.33
2023-05-10T01:14:00.533Z,12.31
2023-05-10T01:15:00.578Z,12.30
2023-05-10T01:16:00.557Z,12.30
2023-05-10T01:17:00.853Z,12.30
2023-05-10T01:18:00.602Z,12.31
2023-05-10T01:19:00.610Z,12.30
2023-05-10T01:20:00.690Z,12.30
2023-05-10T01:21:00.691Z,12.26
2023-05-10T01:22:00.682Z,12.26
2023-05-10T01:23:00.743Z,12.25
2023-05-10T01:24:00.711Z,12.25
2023-05-10T01:25:00.709Z,12.23
2023-05-10T01:26:00.736Z,12.23
2023-05-10T01:27:00.777Z,12.23
2023-05-10T01:28:00.757Z,12.25
2023-05-10T01:29:00.889Z,12.25
2023-05-10T01:30:21.854Z,12.26
2023-05-10T01:31:00.908Z,12.26
2023-05-10T01:32:00.898Z,12.27
2023-05-10T01:33:00.914Z,12.27
2023-05-10T01:34:00.874Z,12.28
2023-05-10T01:35:00.887Z,12.29
2023-05-10T01:36:00.911Z,12.30
2023-05-10T01:37:00.879Z,12.32
2023-05-10T01:38:00.957Z,12.33
2023-05-10T01:39:00.856Z,12.32
2023-05-10T01:40:00.896Z,12.30
2023-05-10T01:41:00.875Z,12.28
2023-05-10T01:42:00.909Z,12.28
2023-05-10T01:43:00.885Z,12.29
2023-05-10T01:44:00.934Z,12.28
2023-05-10T01:45:00.908Z,12.25
2023-05-10T01:46:00.882Z,12.25
2023-05-10T01:47:00.942Z,12.24
2023-05-10T01:48:00.914Z,12.23
2023-05-10T01:49:00.896Z,12.23
2023-05-10T01:50:00.884Z,12.23
2023-05-10T01:51:00.882Z,12.23
2023-05-10T01:52:00.906Z,12.25
2023-05-10T01:53:00.929Z,12.26
2023-05-10T01:54:00.918Z,12.26
2023-05-10T01:55:00.905Z,12.26
2023-05-10T01:56:00.894Z,12.26
2023-05-10T01:57:00.889Z,12.25
2023-05-10T01:58:00.942Z,12.25
2023-05-10T01:59:00.908Z,12.25
2023-05-10T02:00:00.897Z,12.25
2023-05-10T02:01:00.973Z,12.25
2023-05-10T02:02:00.889Z,12.25
2023-05-10T02:03:00.974Z,12.24
2023-05-10T02:04:01.040Z,12.23
2023-05-10T02:05:00.995Z,12.22
2023-05-10T02:06:01.024Z,12.23
2023-05-10T02:07:01.039Z,12.23
2023-05-10T02:08:00.995Z,12.25
2023-05-10T02:09:01.071Z,12.27
2023-05-10T02:10:01.002Z,12.28
2023-05-10T02:11:01.003Z,12.28
2023-05-10T02:12:01.007Z,12.29
2023-05-10T02:13:01.057Z,12.31
2023-05-10T02:14:56.180Z,12.28
2023-05-10T02:15:56.000Z,12.26
2023-05-10T02:16:56.090Z,12.25
2023-05-10T02:17:56.019Z,12.23
2023-05-10T02:18:55.983Z,12.21
2023-05-10T02:19:56.012Z,12.21
2023-05-10T02:20:56.018Z,12.19
2023-05-10T02:21:56.024Z,12.16
2023-05-10T02:22:56.036Z,12.14
2023-05-10T02:23:56.031Z,12.12
2023-05-10T02:24:56.018Z,12.11
2023-05-10T02:25:56.024Z,12.09
2023-05-10T02:26:56.040Z,12.06
2023-05-10T02:27:56.014Z,12.05
2023-05-10T02:28:56.034Z,12.06
2023-05-10T02:29:56.026Z,12.06
2023-05-10T02:30:56.025Z,12.05
2023-05-10T02:31:56.083Z,12.04
2023-05-10T02:32:56.051Z,12.05
2023-05-10T02:33:56.028Z,12.04
2023-05-10T02:34:56.032Z,12.06
2023-05-10T02:35:56.034Z,12.08
2023-05-10T02:36:56.051Z,12.10
2023-05-10T02:37:56.062Z,12.10
2023-05-10T02:38:56.044Z,12.09
2023-05-10T02:39:56.114Z,12.08
2023-05-10T02:40:56.032Z,12.09
2023-05-10T02:41:56.045Z,12.12
2023-05-10T02:42:56.054Z,12.15
2023-05-10T02:43:56.015Z,12.14
2023-05-10T02:44:56.056Z,12.16
2023-05-10T02:45:56.067Z,12.17
2023-05-10T02:46:56.018Z,12.20
2023-05-10T02:47:56.077Z,12.21
2023-05-10T02:48:56.048Z,12.21
2023-05-10T02:49:56.257Z,12.21
2023-05-10T02:50:56.247Z,12.24
2023-05-10T02:51:56.216Z,12.25
2023-05-10T02:52:56.251Z,12.22
2023-05-10T02:53:56.289Z,12.18
2023-05-10T02:54:56.269Z,12.15
2023-05-10T02:55:56.279Z,12.14
2023-05-10T02:56:56.287Z,12.13
2023-05-10T02:57:56.347Z,12.13
2023-05-10T02:58:56.340Z,12.14
2023-05-10T02:59:56.342Z,12.12
2023-05-10T03:00:56.340Z,12.10
2023-05-10T03:01:56.473Z,12.11
2023-05-10T03:02:56.525Z,12.11
2023-05-10T03:03:56.570Z,12.09
2023-05-10T03:04:56.570Z,12.10
2023-05-10T03:05:56.524Z,12.10
2023-05-10T03:06:56.528Z,12.11
2023-05-10T03:07:56.571Z,12.09
2023-05-10T03:08:56.554Z,12.10
2023-05-10T03:09:56.539Z,12.10
2023-05-10T03:10:56.531Z,12.09
2023-05-10T03:11:56.558Z,12.10
2023-05-10T03:12:56.548Z,12.10
2023-05-10T03:13:56.722Z,12.12
2023-05-10T03:14:56.599Z,12.12
2023-05-10T03:15:56.553Z,12.11
2023-05-10T03:16:56.562Z,12.10
2023-05-10T03:17:56.608Z,12.09
2023-05-10T03:18:56.547Z,12.07
2023-05-10T03:19:56.576Z,12.06
2023-05-10T03:20:56.610Z,12.06
2023-05-10T03:21:56.601Z,12.06
2023-05-10T03:22:56.629Z,12.06
2023-05-10T03:23:56.812Z,12.06
2023-05-10T03:24:56.786Z,12.06
2023-05-10T03:25:56.799Z,12.08
2023-05-10T03:26:56.780Z,12.07
2023-05-10T03:27:56.766Z,12.06
2023-05-10T03:28:56.768Z,12.04
2023-05-10T03:29:56.821Z,12.03
2023-05-10T03:30:56.816Z,12.05
2023-05-10T03:31:56.798Z,12.05
2023-05-10T03:32:56.827Z,12.06
2023-05-10T03:33:56.933Z,12.06
2023-05-10T03:34:56.963Z,12.06
2023-05-10T03:35:56.965Z,12.08
2023-05-10T03:36:56.931Z,12.07
2023-05-10T03:37:56.951Z,12.08
2023-05-10T03:38:56.950Z,12.08
2023-05-10T03:39:56.951Z,12.05
2023-05-10T03:40:56.992Z,12.03
2023-05-10T03:41:56.965Z,12.03
2023-05-10T03:42:56.935Z,12.02
2023-05-10T03:43:56.947Z,12.02
2023-05-10T03:44:56.968Z,12.02
2023-05-10T03:45:56.936Z,12.02
2023-05-10T03:46:57.144Z,12.05
2023-05-10T03:47:57.119Z,12.05
2023-05-10T03:48:57.060Z,12.03
2023-05-10T03:49:57.085Z,12.02
2023-05-10T03:50:57.058Z,12.01
2023-05-10T03:51:57.060Z,11.98
2023-05-10T03:52:57.074Z,11.96
2023-05-10T03:53:57.052Z,11.97
2023-05-10T03:54:57.095Z,11.96
2023-05-10T03:55:57.081Z,11.95
2023-05-10T03:56:57.064Z,11.97
2023-05-10T03:57:57.071Z,11.97
2023-05-10T03:58:57.132Z,11.97
2023-05-10T03:59:57.117Z,11.98
2023-05-10T04:00:57.119Z,11.98
2023-05-10T04:01:57.200Z,11.99
2023-05-10T04:02:57.175Z,12.01
2023-05-10T04:03:57.153Z,12.01
2023-05-10T04:04:57.110Z,12.04
2023-05-10T04:05:57.210Z,12.06
2023-05-10T04:06:57.144Z,12.09
2023-05-10T04:07:57.177Z,12.09
2023-05-10T04:08:57.159Z,12.09
2023-05-10T04:09:57.178Z,12.10
2023-05-10T04:10:57.166Z,12.11
2023-05-10T04:11:57.195Z,12.11
2023-05-10T04:12:57.252Z,12.13
2023-05-10T04:13:57.209Z,12.13
2023-05-10T04:14:57.284Z,12.10
2023-05-10T04:15:57.243Z,12.09
2023-05-10T04:16:57.377Z,12.07
2023-05-10T04:17:57.310Z,12.08
2023-05-10T04:18:57.436Z,12.07
2023-05-10T04:19:57.474Z,12.11
2023-05-10T04:20:57.439Z,12.12
2023-05-10T04:21:57.465Z,12.14
2023-05-10T04:22:57.439Z,12.14
2023-05-10T04:23:57.449Z,12.15
2023-05-10T04:24:57.444Z,12.17
2023-05-10T04:25:57.487Z,12.19
2023-05-10T04:26:57.998Z,12.20
2023-05-10T04:27:57.474Z,12.23
2023-05-10T04:28:57.456Z,12.26
2023-05-10T04:29:57.462Z,12.27
2023-05-10T04:30:57.513Z,12.27
2023-05-10T04:31:57.479Z,12.28
2023-05-10T04:32:57.610Z,12.30
2023-05-10T04:33:57.485Z,12.30
2023-05-10T04:34:57.477Z,12.31
2023-05-10T04:35:57.504Z,12.30
2023-05-10T04:36:57.534Z,12.28
2023-05-10T04:37:57.549Z,12.31
2023-05-10T04:38:57.514Z,12.32
2023-05-10T04:39:57.551Z,12.33
2023-05-10T04:40:57.555Z,12.35
2023-05-10T04:41:57.558Z,12.33
2023-05-10T04:42:57.573Z,12.34
2023-05-10T04:43:57.618Z,12.32
2023-05-10T04:44:57.576Z,12.33
2023-05-10T04:45:57.651Z,12.29
2023-05-10T04:46:57.661Z,12.27
2023-05-10T04:47:57.654Z,12.25
2023-05-10T04:48:57.652Z,12.25
2023-05-10T04:49:57.649Z,12.25
2023-05-10T04:50:57.709Z,12.27
2023-05-10T04:51:57.718Z,12.28
2023-05-10T04:52:57.688Z,12.27
2023-05-10T04:54:05.965Z,12.28
2023-05-10T04:54:57.706Z,12.28
2023-05-10T04:55:57.708Z,12.29
2023-05-10T04:56:57.719Z,12.31
2023-05-10T04:57:57.727Z,12.34
2023-05-10T04:58:57.695Z,12.34
2023-05-10T04:59:57.729Z,12.32
2023-05-10T05:00:57.710Z,12.32
2023-05-10T05:01:57.733Z,12.30
2023-05-10T05:02:57.793Z,12.28
2023-05-10T05:03:57.837Z,12.26
2023-05-10T05:04:57.952Z,12.26
2023-05-10T05:05:57.723Z,12.23
2023-05-10T05:06:57.767Z,12.22
2023-05-10T05:07:57.727Z,12.21
2023-05-10T05:08:57.762Z,12.20
2023-05-10T05:09:57.711Z,12.19
2023-05-10T05:10:57.696Z,12.18
2023-05-10T05:11:57.704Z,12.18
2023-05-10T05:12:57.768Z,12.16
2023-05-10T05:13:57.746Z,12.15
2023-05-10T05:14:57.724Z,12.15
2023-05-10T05:15:57.751Z,12.15
2023-05-10T05:16:57.704Z,12.16
2023-05-10T05:17:57.765Z,12.14
2023-05-10T05:18:57.721Z,12.14
2023-05-10T05:19:57.811Z,12.13
2023-05-10T05:20:57.743Z,12.14
2023-05-10T05:21:57.753Z,12.14
2023-05-10T05:22:57.741Z,12.16
2023-05-10T05:23:57.742Z,12.19
2023-05-10T05:24:57.735Z,12.21
2023-05-10T05:25:57.723Z,12.25
2023-05-10T05:26:57.725Z,12.27
2023-05-10T05:27:57.725Z,12.29
2023-05-10T05:28:57.791Z,12.28
2023-05-10T05:29:57.737Z,12.29
2023-05-10T05:30:57.734Z,12.27
2023-05-10T05:31:57.859Z,12.27
2023-05-10T05:32:57.823Z,12.28
2023-05-10T05:33:57.748Z,12.30
2023-05-10T05:34:57.748Z,12.33
2023-05-10T05:35:57.789Z,12.32
2023-05-10T05:36:57.730Z,12.32
2023-05-10T05:37:57.784Z,12.33
2023-05-10T05:38:57.776Z,12.34
2023-05-10T05:39:57.755Z,12.34
2023-05-10T05:40:57.783Z,12.31
2023-05-10T05:41:57.770Z,12.30
2023-05-10T05:42:57.734Z,12.27
2023-05-10T05:43:57.761Z,12.25
2023-05-10T05:44:57.759Z,12.25
2023-05-10T05:45:57.767Z,12.26
2023-05-10T05:46:57.745Z,12.27
2023-05-10T05:47:57.763Z,12.29
2023-05-10T05:48:57.749Z,12.31
2023-05-10T05:49:57.792Z,12.32
2023-05-10T05:50:57.744Z,12.33
2023-05-10T05:51:57.786Z,12.34
2023-05-10T05:52:57.775Z,12.34
2023-05-10T05:53:57.885Z,12.35
2023-05-10T05:54:57.799Z,12.36
2023-05-10T05:55:57.758Z,12.34
2023-05-10T05:56:59.751Z,12.36
2023-05-10T05:57:57.766Z,12.41
2023-05-10T05:58:57.815Z,12.44
2023-05-10T05:59:57.800Z,12.48
2023-05-10T06:00:57.789Z,12.52
2023-05-10T06:01:57.841Z,12.54
2023-05-10T06:02:57.864Z,12.60
2023-05-10T06:03:57.942Z,12.62
2023-05-10T06:04:57.761Z,12.63
2023-05-10T06:05:57.791Z,12.57
2023-05-10T06:06:57.776Z,12.53
2023-05-10T06:07:57.776Z,12.53
2023-05-10T06:08:57.790Z,12.55
2023-05-10T06:09:57.800Z,12.58
2023-05-10T06:10:57.776Z,12.57
2023-05-10T06:11:57.788Z,12.60
2023-05-10T06:12:57.830Z,12.63
2023-05-10T06:13:57.792Z,12.65
2023-05-10T06:14:57.777Z,12.68
2023-05-10T06:15:57.793Z,12.67
2023-05-10T06:16:58.201Z,12.69
2023-05-10T06:17:57.832Z,12.70
2023-05-10T06:18:57.779Z,12.71
2023-05-10T06:20:40.053Z,12.73
2023-05-10T06:21:40.062Z,12.75
2023-05-10T06:22:40.093Z,12.77
2023-05-10T06:23:40.088Z,12.78
2023-05-10T06:24:40.126Z,12.78
2023-05-10T06:25:40.088Z,12.75
2023-05-10T06:26:40.056Z,12.73
2023-05-10T06:27:40.076Z,12.71
2023-05-10T06:28:40.118Z,12.73
2023-05-10T06:29:40.077Z,12.77
2023-05-10T06:30:40.107Z,12.80
2023-05-10T06:31:40.106Z,12.85
2023-05-10T06:32:40.166Z,12.89
2023-05-10T06:33:40.135Z,12.90
2023-05-10T06:34:40.112Z,12.84
2023-05-10T06:35:40.106Z,12.82
2023-05-10T06:36:40.113Z,12.82
2023-05-10T06:37:40.116Z,12.83
2023-05-10T06:38:40.142Z,12.84
2023-05-10T06:39:40.102Z,12.86
2023-05-10T06:40:40.153Z,12.88
2023-05-10T06:41:40.144Z,12.93
2023-05-10T06:42:40.098Z,12.95
2023-05-10T06:43:40.128Z,12.97
2023-05-10T06:44:40.082Z,13.00
2023-05-10T06:45:40.124Z,13.07
2023-05-10T06:46:40.193Z,13.14
2023-05-10T06:47:40.146Z,13.22
2023-05-10T06:48:40.136Z,13.32
2023-05-10T06:49:40.234Z,13.44
2023-05-10T06:50:40.122Z,13.52
2023-05-10T06:51:40.116Z,13.59
2023-05-10T06:52:40.149Z,13.57
2023-05-10T06:53:40.126Z,13.57
2023-05-10T06:54:40.157Z,13.57
2023-05-10T06:55:40.277Z,13.58
2023-05-10T06:56:40.296Z,13.55
2023-05-10T06:57:40.497Z,13.47
2023-05-10T06:58:40.512Z,13.40
2023-05-10T06:59:40.550Z,13.35
2023-05-10T07:00:40.532Z,13.34
2023-05-10T07:01:40.531Z,13.34
2023-05-10T07:02:40.545Z,13.34
2023-05-10T07:03:40.490Z,13.38
2023-05-10T07:04:40.516Z,13.42
2023-05-10T07:05:40.534Z,13.47
2023-05-10T07:06:40.507Z,13.56
2023-05-10T07:07:40.508Z,13.60
2023-05-10T07:08:40.495Z,13.61
2023-05-10T07:09:40.502Z,13.62
2023-05-10T07:10:40.507Z,13.64
2023-05-10T07:11:40.742Z,13.64
2023-05-10T07:12:40.597Z,13.68
2023-05-10T07:13:40.576Z,13.72
2023-05-10T07:14:40.506Z,13.80
2023-05-10T07:15:40.533Z,13.82
2023-05-10T07:16:40.629Z,13.85
2023-05-10T07:17:43.092Z,13.82
2023-05-10T07:18:40.560Z,13.80
2023-05-10T07:19:40.526Z,13.78
2023-05-10T07:20:40.535Z,13.75
2023-05-10T07:21:40.547Z,13.70
2023-05-10T07:22:40.555Z,13.70
2023-05-10T07:23:41.628Z,13.70
2023-05-10T07:24:40.528Z,13.66
2023-05-10T07:25:40.553Z,13.70
2023-05-10T07:26:40.530Z,13.65
2023-05-10T07:27:40.546Z,13.62
2023-05-10T07:28:40.560Z,13.58
2023-05-10T07:29:40.533Z,13.60
2023-05-10T07:30:40.592Z,13.62
2023-05-10T07:31:40.600Z,13.63
2023-05-10T07:32:40.698Z,13.60
2023-05-10T07:33:40.527Z,13.60
2023-05-10T07:34:40.560Z,13.59
2023-05-10T07:35:40.535Z,13.58
2023-05-10T07:36:40.558Z,13.53
2023-05-10T07:37:40.551Z,13.50
2023-05-10T07:38:41.125Z,13.48
2023-05-10T07:39:40.610Z,13.49
2023-05-10T07:40:40.528Z,13.50
2023-05-10T07:41:40.565Z,13.50
2023-05-10T07:42:40.572Z,13.53
2023-05-10T07:43:40.599Z,13.58
2023-05-10T07:44:40.570Z,13.62
2023-05-10T07:45:40.606Z,13.66
2023-05-10T07:46:40.612Z,13.69
2023-05-10T07:47:40.686Z,13.71
2023-05-10T07:48:40.616Z,13.73
2023-05-10T07:49:40.625Z,13.75
2023-05-10T07:50:40.667Z,13.75
2023-05-10T07:51:40.686Z,13.71
2023-05-10T07:52:40.696Z,13.69
2023-05-10T07:53:40.707Z,13.67
2023-05-10T07:54:40.718Z,13.65
2023-05-10T07:55:40.726Z,13.64
2023-05-10T07:56:40.897Z,13.66
2023-05-10T07:57:40.835Z,13.70
2023-05-10T07:58:40.845Z,13.70
2023-05-10T07:59:40.794Z,13.70
2023-05-10T08:00:40.804Z,13.72
2023-05-10T08:01:40.851Z,13.75
2023-05-10T08:02:40.880Z,13.80
2023-05-10T08:03:41.003Z,13.78
2023-05-10T08:04:40.852Z,13.75
2023-05-10T08:05:40.932Z,13.66
2023-05-10T08:06:40.999Z,13.57
2023-05-10T08:07:40.920Z,13.57
2023-05-10T08:08:40.977Z,13.55
2023-05-10T08:09:40.929Z,13.57
2023-05-10T08:10:40.965Z,13.57
2023-05-10T08:11:40.953Z,13.57
2023-05-10T08:12:41.030Z,13.59
2023-05-10T08:13:40.948Z,13.60
2023-05-10T08:14:40.944Z,13.64
2023-05-10T08:15:41.002Z,13.60
2023-05-10T08:16:40.968Z,13.58
2023-05-10T08:17:41.027Z,13.58
2023-05-10T08:18:41.059Z,13.60
2023-05-10T08:19:41.029Z,13.54
2023-05-10T08:20:40.985Z,13.52
2023-05-10T08:21:41.028Z,13.51
2023-05-10T08:22:41.087Z,13.48
2023-05-10T08:23:41.072Z,13.50
2023-05-10T08:24:41.142Z,13.52
2023-05-10T08:25:41.192Z,13.56
2023-05-10T08:26:41.191Z,13.51
2023-05-10T08:27:41.214Z,13.49
2023-05-10T08:28:41.174Z,13.48
2023-05-10T08:29:49.588Z,13.44
2023-05-10T08:30:41.176Z,13.47
2023-05-10T08:31:41.217Z,13.50
2023-05-10T08:32:41.196Z,13.51
2023-05-10T08:33:42.312Z,13.54
2023-05-10T08:34:41.190Z,13.61
2023-05-10T08:35:41.192Z,13.66
2023-05-10T08:36:41.258Z,13.66
2023-05-10T08:37:41.279Z,13.73
2023-05-10T08:38:41.293Z,13.76
2023-05-10T08:39:41.272Z,13.78
2023-05-10T08:40:41.312Z,13.85
2023-05-10T08:41:41.334Z,13.95
2023-05-10T08:42:41.284Z,14.09
2023-05-10T08:43:41.274Z,14.18
2023-05-10T08:44:41.321Z,14.21
2023-05-10T08:45:41.420Z,14.22
2023-05-10T08:46:41.473Z,14.28
2023-05-10T08:47:41.415Z,14.36
2023-05-10T08:48:41.369Z,14.36
2023-05-10T08:49:41.418Z,14.38
2023-05-10T08:50:41.409Z,14.46
2023-05-10T08:51:41.902Z,14.56
2023-05-10T08:52:41.417Z,14.69
2023-05-10T08:53:41.537Z,14.75
2023-05-10T08:54:41.524Z,14.83
2023-05-10T08:55:41.471Z,14.94
2023-05-10T08:56:41.537Z,14.99
2023-05-10T08:57:41.580Z,15.00
2023-05-10T08:58:41.522Z,15.01
2023-05-10T08:59:41.561Z,14.96
2023-05-10T09:00:41.615Z,14.96
2023-05-10T09:01:41.545Z,14.90
2023-05-10T09:02:41.594Z,14.90
2023-05-10T09:03:41.590Z,14.93
2023-05-10T09:04:41.619Z,15.02
2023-05-10T09:05:41.653Z,15.09
2023-05-10T09:06:41.643Z,15.16
2023-05-10T09:07:41.653Z,15.26
2023-05-10T09:08:41.614Z,15.34
2023-05-10T09:09:41.670Z,15.49
2023-05-10T09:10:41.660Z,15.64
2023-05-10T09:11:41.659Z,15.71
2023-05-10T09:12:41.649Z,15.78
2023-05-10T09:13:41.657Z,15.90
2023-05-10T09:14:41.657Z,15.99
2023-05-10T09:15:41.710Z,16.05
2023-05-10T09:16:41.715Z,16.14
2023-05-10T09:17:41.735Z,16.26
2023-05-10T09:18:42.057Z,16.41
2023-05-10T09:19:41.805Z,16.58
2023-05-10T09:20:41.822Z,16.62
2023-05-10T09:21:41.820Z,16.63
2023-05-10T09:22:41.862Z,16.62
2023-05-10T09:23:41.802Z,16.57
2023-05-10T09:24:41.872Z,16.57
2023-05-10T09:25:41.804Z,16.52
2023-05-10T09:26:41.823Z,16.53
2023-05-10T09:27:41.833Z,16.62
2023-05-10T09:28:41.831Z,16.74
2023-05-10T09:29:41.951Z,16.78
2023-05-10T09:30:41.961Z,16.78
2023-05-10T09:31:41.946Z,16.80
2023-05-10T09:32:41.988Z,16.77
2023-05-10T09:33:41.950Z,16.67
2023-05-10T09:34:41.987Z,16.52
2023-05-10T09:35:41.963Z,16.36
2023-05-10T09:36:41.967Z,16.21
2023-05-10T09:37:41.977Z,16.10
2023-05-10T09:38:41.976Z,16.01
2023-05-10T09:39:41.967Z,15.94
2023-05-10T09:40:41.937Z,15.84
2023-05-10T09:41:41.975Z,15.77
2023-05-10T09:42:42.010Z,15.69
2023-05-10T09:43:42.011Z,15.66
2023-05-10T09:44:42.050Z,15.66
2023-05-10T09:45:42.040Z,15.66
2023-05-10T09:46:42.129Z,15.72
2023-05-10T09:47:42.090Z,15.80
2023-05-10T09:48:42.098Z,15.87
2023-05-10T09:49:42.067Z,16.01
2023-05-10T09:50:42.083Z,16.13
2023-05-10T09:51:42.116Z,16.26
2023-05-10T09:52:42.112Z,16.41
2023-05-10T09:53:42.151Z,16.53
2023-05-10T09:54:42.161Z,16.71
2023-05-10T09:55:42.284Z,16.84
2023-05-10T09:56:42.276Z,16.85
2023-05-10T09:57:42.219Z,16.89
2023-05-10T09:58:42.274Z,16.99
2023-05-10T09:59:42.306Z,17.05
2023-05-10T10:00:42.249Z,17.04
2023-05-10T10:01:42.333Z,17.03
2023-05-10T10:02:42.318Z,16.94
2023-05-10T10:03:42.267Z,16.78
2023-05-10T10:04:42.327Z,16.68
2023-05-10T10:05:42.286Z,16.62
2023-05-10T10:06:42.327Z,16.50
2023-05-10T10:07:42.319Z,16.35
2023-05-10T10:08:42.421Z,16.30
2023-05-10T10:09:42.454Z,16.21
2023-05-10T10:10:42.453Z,16.14
2023-05-10T10:11:42.496Z,16.02
2023-05-10T10:12:42.455Z,15.94
2023-05-10T10:13:42.450Z,15.89
2023-05-10T10:14:42.410Z,15.88
2023-05-10T10:15:42.469Z,15.84
2023-05-10T10:16:51.820Z,15.83
2023-05-10T10:17:42.465Z,15.77
2023-05-10T10:18:42.532Z,15.73
2023-05-10T10:19:42.421Z,15.73
2023-05-10T10:20:42.451Z,15.77
2023-05-10T10:21:42.444Z,15.80
2023-05-10T10:22:42.460Z,15.78
2023-05-10T10:23:42.431Z,15.85
2023-05-10T10:24:42.465Z,15.83
2023-05-10T10:25:42.436Z,15.84
2023-05-10T10:26:42.463Z,15.81
2023-05-10T10:27:42.472Z,15.80
2023-05-10T10:28:42.466Z,15.81
2023-05-10T10:29:42.471Z,15.80
2023-05-10T10:30:42.501Z,15.86
2023-05-10T10:31:42.482Z,15.92
2023-05-10T10:32:42.558Z,15.98
2023-05-10T10:33:42.430Z,16.01
2023-05-10T10:34:42.517Z,15.98
2023-05-10T10:35:42.476Z,15.97
2023-05-10T10:36:42.490Z,15.94
2023-05-10T10:37:42.469Z,15.89
2023-05-10T10:38:42.445Z,15.89
2023-05-10T10:39:42.485Z,15.97
2023-05-10T10:40:42.440Z,16.03
2023-05-10T10:41:42.466Z,16.07
2023-05-10T10:42:42.453Z,16.17
2023-05-10T10:43:42.487Z,16.26
2023-05-10T10:44:42.527Z,16.19
2023-05-10T10:45:42.476Z,16.19
2023-05-10T10:46:42.499Z,16.31
2023-05-10T10:47:42.513Z,16.46
2023-05-10T10:48:42.483Z,16.65
2023-05-10T10:49:42.521Z,16.85
2023-05-10T10:50:42.491Z,17.12
2023-05-10T10:51:42.465Z,17.31
2023-05-10T10:52:42.534Z,17.60
2023-05-10T10:53:42.474Z,17.85
2023-05-10T10:54:42.527Z,18.13
2023-05-10T10:55:42.507Z,18.44
2023-05-10T10:56:42.481Z,18.62
2023-05-10T10:57:42.595Z,18.82
2023-05-10T10:58:42.490Z,18.99
2023-05-10T10:59:42.491Z,19.08
2023-05-10T11:00:42.565Z,19.07
2023-05-10T11:01:42.497Z,19.05
2023-05-10T11:02:42.568Z,18.76
2023-05-10T11:03:42.482Z,18.65
2023-05-10T11:04:42.618Z,18.45
2023-05-10T11:05:42.516Z,18.37
2023-05-10T11:06:42.534Z,18.41
2023-05-10T11:07:42.492Z,18.38
2023-05-10T11:08:42.499Z,18.43
2023-05-10T11:09:42.478Z,18.44
2023-05-10T11:10:42.515Z,18.46
2023-05-10T11:11:42.510Z,18.53
2023-05-10T11:12:42.496Z,18.65
2023-05-10T11:13:42.531Z,18.69
2023-05-10T11:14:42.500Z,18.63
2023-05-10T11:15:42.523Z,18.51
2023-05-10T11:16:42.568Z,18.42
2023-05-10T11:17:42.536Z,18.32
2023-05-10T11:18:42.544Z,18.11
2023-05-10T11:19:42.498Z,17.96
2023-05-10T11:20:42.507Z,17.79
2023-05-10T11:21:42.529Z,17.62
2023-05-10T11:22:42.536Z,17.40
2023-05-10T11:23:42.513Z,17.25
2023-05-10T11:24:42.531Z,17.14
2023-05-10T11:25:42.530Z,17.10
2023-05-10T11:26:42.527Z,17.09
2023-05-10T11:27:42.537Z,17.05
2023-05-10T11:28:42.514Z,17.02
2023-05-10T11:29:42.539Z,16.99
2023-05-10T11:30:42.596Z,17.04
2023-05-10T11:31:42.519Z,17.01
2023-05-10T11:32:42.597Z,17.01
2023-05-10T11:33:42.518Z,17.13
2023-05-10T11:34:42.513Z,17.21
2023-05-10T11:35:43.719Z,17.33
2023-05-10T11:36:42.523Z,17.46
2023-05-10T11:37:42.538Z,17.44
2023-05-10T11:38:42.532Z,17.51
2023-05-10T11:39:42.537Z,17.56
2023-05-10T11:40:42.516Z,17.64
2023-05-10T11:41:43.164Z,17.69
2023-05-10T11:42:42.553Z,17.70
2023-05-10T11:43:42.529Z,17.69
2023-05-10T11:44:42.542Z,17.79
2023-05-10T11:45:42.499Z,17.99
2023-05-10T11:46:42.687Z,18.23
2023-05-10T11:47:42.945Z,18.37
2023-05-10T11:48:42.587Z,18.48
2023-05-10T11:49:42.535Z,18.54
2023-05-10T11:50:42.574Z,18.41
2023-05-10T11:51:42.545Z,18.34
2023-05-10T11:52:42.666Z,18.27
2023-05-10T11:53:42.553Z,18.22
2023-05-10T11:54:42.619Z,18.18
2023-05-10T11:55:42.541Z,18.20
2023-05-10T11:56:42.554Z,18.21
2023-05-10T11:57:42.559Z,18.25
2023-05-10T11:58:42.563Z,18.25
2023-05-10T11:59:43.264Z,18.14
2023-05-10T12:00:42.553Z,18.03
2023-05-10T12:01:42.572Z,17.90
2023-05-10T12:02:42.677Z,17.79
2023-05-10T12:03:42.682Z,17.79
2023-05-10T12:04:42.605Z,17.85
2023-05-10T12:05:43.138Z,17.96
2023-05-10T12:06:42.564Z,18.04
2023-05-10T12:07:42.538Z,18.12
2023-05-10T12:08:42.636Z,18.17
2023-05-10T12:09:44.381Z,18.25
2023-05-10T12:10:42.541Z,18.25
2023-05-10T12:11:44.279Z,18.22
2023-05-10T12:12:42.562Z,18.29
2023-05-10T12:13:42.597Z,18.58
2023-05-10T12:14:42.596Z,18.92
2023-05-10T12:15:42.574Z,19.12
2023-05-10T12:16:42.654Z,19.27
2023-05-10T12:17:43.544Z,19.48
2023-05-10T12:18:42.595Z,19.87
2023-05-10T12:19:42.619Z,20.19
2023-05-10T12:21:46.100Z,20.63
2023-05-10T12:22:46.067Z,20.95
2023-05-10T12:23:46.145Z,21.19
2023-05-10T12:24:46.099Z,20.75
2023-05-10T12:25:46.079Z,20.47
2023-05-10T12:26:46.109Z,20.26
2023-05-10T12:27:46.129Z,19.94
2023-05-10T12:28:46.152Z,19.72
2023-05-10T12:29:46.132Z,19.64
2023-05-10T12:30:46.107Z,19.61
2023-05-10T12:31:46.141Z,19.61
2023-05-10T12:32:46.110Z,19.57
2023-05-10T12:33:46.152Z,19.46
2023-05-10T12:34:46.122Z,19.48
2023-05-10T12:35:46.164Z,19.59
2023-05-10T12:36:46.125Z,19.59
2023-05-10T12:37:46.116Z,19.59
2023-05-10T12:38:46.141Z,19.61
2023-05-10T12:39:46.119Z,19.60
2023-05-10T12:40:46.147Z,19.57
2023-05-10T12:41:46.097Z,19.58
2023-05-10T12:42:46.379Z,19.52
2023-05-10T12:43:46.148Z,19.58
2023-05-10T12:44:46.090Z,19.62
2023-05-10T12:45:46.145Z,19.56
2023-05-10T12:46:46.125Z,19.53
2023-05-10T12:47:46.156Z,19.64
2023-05-10T12:48:46.146Z,19.79
2023-05-10T12:49:46.120Z,19.77
2023-05-10T12:50:46.125Z,19.73
2023-05-10T12:51:46.130Z,19.65
2023-05-10T12:52:46.134Z,19.61
2023-05-10T12:53:47.349Z,19.64
2023-05-10T12:54:46.139Z,19.72
2023-05-10T12:55:46.115Z,19.69